sensor_id;sensor_type;location;lat;lon;timestamp;temperature;humidity
64869;DHT22;51349;52.424;10.840;2023-02-14T00:02:52;1.40;99.90
64869;DHT22;51349;52.424;10.840;2023-02-14T00:07:52;1.40;99.90
64869;DHT22;51349;52.424;10.840;2023-02-14T00:12:53;1.40;99.90
64869;DHT22;51349;52.424;10.840;2023-02-14T00:17:55;1.50;99.90
64869;DHT22;51349;52.424;10.840;2023-02-14T00:22:58;1.60;99.90
64869;DHT22;51349;52.424;10.840;2023-02-14T00:28:00;1.70;99.90
64869;DHT22;51349;52.424;10.840;2023-02-14T00:33:00;1.90;99.90
64869;DHT22;51349;52.424;10.840;2023-02-14T00:38:01;2.00;99.90
64869;DHT22;51349;52.424;10.840;2023-02-14T00:43:02;2.10;99.90
64869;DHT22;51349;52.424;10.840;2023-02-14T00:48:02;2.20;99.90
64869;DHT22;51349;52.424;10.840;2023-02-14T00:53:03;2.20;99.90
64869;DHT22;51349;52.424;10.840;2023-02-14T00:58:04;2.30;99.90
64869;DHT22;51349;52.424;10.840;2023-02-14T01:03:04;2.30;99.90
64869;DHT22;51349;52.424;10.840;2023-02-14T01:08:05;2.40;99.90
64869;DHT22;51349;52.424;10.840;2023-02-14T01:13:06;2.40;99.90
64869;DHT22;51349;52.424;10.840;2023-02-14T01:18:07;2.50;99.90
64869;DHT22;51349;52.424;10.840;2023-02-14T01:23:09;2.50;99.90
64869;DHT22;51349;52.424;10.840;2023-02-14T01:28:09;2.60;99.90
64869;DHT22;51349;52.424;10.840;2023-02-14T01:33:10;2.60;99.90
64869;DHT22;51349;52.424;10.840;2023-02-14T01:38:10;2.70;99.90
64869;DHT22;51349;52.424;10.840;2023-02-14T01:43:15;2.80;99.90
64869;DHT22;51349;52.424;10.840;2023-02-14T01:48:18;2.80;99.90
64869;DHT22;51349;52.424;10.840;2023-02-14T01:53:27;2.90;99.90
64869;DHT22;51349;52.424;10.840;2023-02-14T01:58:30;2.90;99.90
64869;DHT22;51349;52.424;10.840;2023-02-14T02:03:39;3.00;99.90
64869;DHT22;51349;52.424;10.840;2023-02-14T02:13:50;3.00;99.90
64869;DHT22;51349;52.424;10.840;2023-02-14T02:19:08;3.10;99.90
64869;DHT22;51349;52.424;10.840;2023-02-14T02:24:19;3.10;99.90
64869;DHT22;51349;52.424;10.840;2023-02-14T02:34:53;3.20;99.90
64869;DHT22;51349;52.424;10.840;2023-02-14T02:50:59;3.30;99.90
64869;DHT22;51349;52.424;10.840;2023-02-14T02:56:26;3.30;99.90
64869;DHT22;51349;52.424;10.840;2023-02-14T03:02:16;3.40;99.90
64869;DHT22;51349;52.424;10.840;2023-02-14T03:29:18;3.10;99.90
64869;DHT22;51349;52.424;10.840;2023-02-14T03:34:29;3.00;99.90
64869;DHT22;51349;52.424;10.840;2023-02-14T03:45:21;2.90;99.90
64869;DHT22;51349;52.424;10.840;2023-02-14T03:50:24;2.80;99.90
64869;DHT22;51349;52.424;10.840;2023-02-14T03:55:33;2.70;99.90
64869;DHT22;51349;52.424;10.840;2023-02-14T04:00:38;2.70;99.90
64869;DHT22;51349;52.424;10.840;2023-02-14T04:05:40;2.70;99.90
64869;DHT22;51349;52.424;10.840;2023-02-14T04:10:43;2.40;99.90
64869;DHT22;51349;52.424;10.840;2023-02-14T04:15:44;2.20;99.90
64869;DHT22;51349;52.424;10.840;2023-02-14T04:20:45;2.00;99.90
64869;DHT22;51349;52.424;10.840;2023-02-14T04:25:45;1.90;99.90
64869;DHT22;51349;52.424;10.840;2023-02-14T04:30:46;1.70;99.90
64869;DHT22;51349;52.424;10.840;2023-02-14T04:35:49;1.70;99.90
64869;DHT22;51349;52.424;10.840;2023-02-14T04:40:50;1.50;99.90
64869;DHT22;51349;52.424;10.840;2023-02-14T04:45:51;1.40;99.90
64869;DHT22;51349;52.424;10.840;2023-02-14T04:50:53;1.20;99.90
64869;DHT22;51349;52.424;10.840;2023-02-14T04:55:54;1.10;99.90
64869;DHT22;51349;52.424;10.840;2023-02-14T05:00:54;0.90;99.90
64869;DHT22;51349;52.424;10.840;2023-02-14T05:05:55;0.90;99.90
64869;DHT22;51349;52.424;10.840;2023-02-14T05:10:56;0.70;99.90
64869;DHT22;51349;52.424;10.840;2023-02-14T05:15:57;0.50;99.90
64869;DHT22;51349;52.424;10.840;2023-02-14T05:20:58;0.50;99.90
64869;DHT22;51349;52.424;10.840;2023-02-14T05:25:58;0.40;99.90
64869;DHT22;51349;52.424;10.840;2023-02-14T05:30:59;0.30;99.90
64869;DHT22;51349;52.424;10.840;2023-02-14T05:36:00;0.20;99.90
64869;DHT22;51349;52.424;10.840;2023-02-14T05:41:02;0.10;99.90
64869;DHT22;51349;52.424;10.840;2023-02-14T05:46:03;0.10;99.90
64869;DHT22;51349;52.424;10.840;2023-02-14T05:51:08;0.00;99.90
64869;DHT22;51349;52.424;10.840;2023-02-14T05:56:09;0.00;99.90
64869;DHT22;51349;52.424;10.840;2023-02-14T06:01:09;-0.20;99.90
64869;DHT22;51349;52.424;10.840;2023-02-14T06:06:10;-0.10;99.90
64869;DHT22;51349;52.424;10.840;2023-02-14T06:11:11;-0.30;99.90
64869;DHT22;51349;52.424;10.840;2023-02-14T06:16:11;-0.30;99.90
64869;DHT22;51349;52.424;10.840;2023-02-14T06:21:12;-0.30;99.90
64869;DHT22;51349;52.424;10.840;2023-02-14T06:26:12;-0.40;99.90
64869;DHT22;51349;52.424;10.840;2023-02-14T06:31:16;-0.50;99.90
64869;DHT22;51349;52.424;10.840;2023-02-14T06:36:18;-0.50;99.90
64869;DHT22;51349;52.424;10.840;2023-02-14T06:41:19;-0.50;99.90
64869;DHT22;51349;52.424;10.840;2023-02-14T06:46:20;-0.60;99.90
64869;DHT22;51349;52.424;10.840;2023-02-14T06:51:20;-0.60;99.90
64869;DHT22;51349;52.424;10.840;2023-02-14T06:56:21;-0.60;99.90
64869;DHT22;51349;52.424;10.840;2023-02-14T07:01:22;-0.60;99.90
64869;DHT22;51349;52.424;10.840;2023-02-14T07:06:22;-0.60;99.90
64869;DHT22;51349;52.424;10.840;2023-02-14T07:11:23;-0.50;99.90
64869;DHT22;51349;52.424;10.840;2023-02-14T07:16:24;-0.50;99.90
64869;DHT22;51349;52.424;10.840;2023-02-14T07:21:24;-0.40;99.90
64869;DHT22;51349;52.424;10.840;2023-02-14T07:26:25;-0.30;99.90
64869;DHT22;51349;52.424;10.840;2023-02-14T07:31:26;-0.20;99.90
64869;DHT22;51349;52.424;10.840;2023-02-14T07:36:26;0.00;99.90
64869;DHT22;51349;52.424;10.840;2023-02-14T07:41:27;0.20;99.90
64869;DHT22;51349;52.424;10.840;2023-02-14T07:46:28;0.50;99.90
64869;DHT22;51349;52.424;10.840;2023-02-14T07:51:28;0.60;99.90
64869;DHT22;51349;52.424;10.840;2023-02-14T07:56:29;0.90;99.90
64869;DHT22;51349;52.424;10.840;2023-02-14T08:01:30;1.10;99.90
64869;DHT22;51349;52.424;10.840;2023-02-14T08:06:30;1.40;99.90
64869;DHT22;51349;52.424;10.840;2023-02-14T08:11:32;1.80;99.90
64869;DHT22;51349;52.424;10.840;2023-02-14T08:16:51;2.40;99.90
64869;DHT22;51349;52.424;10.840;2023-02-14T08:21:52;2.90;99.90
64869;DHT22;51349;52.424;10.840;2023-02-14T08:26:52;3.50;99.90
64869;DHT22;51349;52.424;10.840;2023-02-14T08:31:53;4.00;99.90
64869;DHT22;51349;52.424;10.840;2023-02-14T08:36:54;4.90;99.90
64869;DHT22;51349;52.424;10.840;2023-02-14T08:41:54;5.60;99.90
64869;DHT22;51349;52.424;10.840;2023-02-14T08:46:55;6.10;99.90
64869;DHT22;51349;52.424;10.840;2023-02-14T08:51:56;6.70;99.90
64869;DHT22;51349;52.424;10.840;2023-02-14T08:56:56;7.30;99.90
64869;DHT22;51349;52.424;10.840;2023-02-14T09:01:57;7.80;99.90
64869;DHT22;51349;52.424;10.840;2023-02-14T09:06:58;8.10;99.90
64869;DHT22;51349;52.424;10.840;2023-02-14T09:12:05;8.60;99.90
64869;DHT22;51349;52.424;10.840;2023-02-14T09:17:06;8.40;99.90
64869;DHT22;51349;52.424;10.840;2023-02-14T09:22:09;8.00;99.90
64869;DHT22;51349;52.424;10.840;2023-02-14T09:27:10;7.80;99.90
64869;DHT22;51349;52.424;10.840;2023-02-14T09:32:11;8.30;99.90
64869;DHT22;51349;52.424;10.840;2023-02-14T09:37:12;8.10;99.90
64869;DHT22;51349;52.424;10.840;2023-02-14T09:47:54;10.90;99.90
64869;DHT22;51349;52.424;10.840;2023-02-14T09:53:00;10.90;99.90
64869;DHT22;51349;52.424;10.840;2023-02-14T09:58:05;12.60;99.90
64869;DHT22;51349;52.424;10.840;2023-02-14T10:13:41;13.90;99.90
64869;DHT22;51349;52.424;10.840;2023-02-14T10:18:57;14.20;99.90
64869;DHT22;51349;52.424;10.840;2023-02-14T10:29:22;14.40;99.90
64869;DHT22;51349;52.424;10.840;2023-02-14T10:45:22;17.60;99.90
64869;DHT22;51349;52.424;10.840;2023-02-14T11:06:04;20.10;99.90
64869;DHT22;51349;52.424;10.840;2023-02-14T11:11:28;18.70;99.90
64869;DHT22;51349;52.424;10.840;2023-02-14T11:16:31;20.80;99.90
64869;DHT22;51349;52.424;10.840;2023-02-14T11:21:37;19.80;96.00
64869;DHT22;51349;52.424;10.840;2023-02-14T11:26:38;21.00;94.60
64869;DHT22;51349;52.424;10.840;2023-02-14T11:31:44;19.40;96.60
64869;DHT22;51349;52.424;10.840;2023-02-14T11:36:44;21.90;94.50
64869;DHT22;51349;52.424;10.840;2023-02-14T11:41:51;22.20;93.50
64869;DHT22;51349;52.424;10.840;2023-02-14T11:46:53;23.30;91.80
64869;DHT22;51349;52.424;10.840;2023-02-14T11:51:57;23.80;90.70
64869;DHT22;51349;52.424;10.840;2023-02-14T11:57:05;22.70;83.90
64869;DHT22;51349;52.424;10.840;2023-02-14T12:02:37;21.80;87.60
64869;DHT22;51349;52.424;10.840;2023-02-14T12:07:38;22.40;87.60
64869;DHT22;51349;52.424;10.840;2023-02-14T12:12:54;25.10;80.60
64869;DHT22;51349;52.424;10.840;2023-02-14T12:28:35;22.40;79.00
64869;DHT22;51349;52.424;10.840;2023-02-14T12:33:39;22.30;80.20
64869;DHT22;51349;52.424;10.840;2023-02-14T12:38:44;22.10;84.50
64869;DHT22;51349;52.424;10.840;2023-02-14T12:43:49;23.20;80.20
64869;DHT22;51349;52.424;10.840;2023-02-14T12:54:39;22.60;76.90
64869;DHT22;51349;52.424;10.840;2023-02-14T13:11:00;21.00;76.10
64869;DHT22;51349;52.424;10.840;2023-02-14T13:16:20;21.90;75.70
64869;DHT22;51349;52.424;10.840;2023-02-14T13:21:24;19.10;80.90
64869;DHT22;51349;52.424;10.840;2023-02-14T13:26:35;20.70;79.00
64869;DHT22;51349;52.424;10.840;2023-02-14T13:31:37;20.60;82.10
64869;DHT22;51349;52.424;10.840;2023-02-14T13:36:39;19.20;80.90
64869;DHT22;51349;52.424;10.840;2023-02-14T13:41:40;17.70;84.00
64869;DHT22;51349;52.424;10.840;2023-02-14T13:46:46;16.50;86.40
64869;DHT22;51349;52.424;10.840;2023-02-14T13:51:51;14.90;92.30
64869;DHT22;51349;52.424;10.840;2023-02-14T13:56:52;15.00;92.20
64869;DHT22;51349;52.424;10.840;2023-02-14T14:01:53;12.40;96.80
64869;DHT22;51349;52.424;10.840;2023-02-14T14:17:27;12.00;99.10
64869;DHT22;51349;52.424;10.840;2023-02-14T14:22:29;12.00;99.90
64869;DHT22;51349;52.424;10.840;2023-02-14T14:27:49;11.90;99.90
64869;DHT22;51349;52.424;10.840;2023-02-14T14:32:50;11.00;99.90
64869;DHT22;51349;52.424;10.840;2023-02-14T14:37:59;11.10;99.90
64869;DHT22;51349;52.424;10.840;2023-02-14T14:43:30;11.30;99.90
64869;DHT22;51349;52.424;10.840;2023-02-14T14:48:45;10.70;99.90
64869;DHT22;51349;52.424;10.840;2023-02-14T14:53:55;10.10;99.90
64869;DHT22;51349;52.424;10.840;2023-02-14T14:58:56;9.30;99.90
64869;DHT22;51349;52.424;10.840;2023-02-14T15:04:23;9.00;99.90
64869;DHT22;51349;52.424;10.840;2023-02-14T15:14:31;9.50;99.90
64869;DHT22;51349;52.424;10.840;2023-02-14T15:19:38;8.90;99.90
64869;DHT22;51349;52.424;10.840;2023-02-14T15:24:41;8.50;99.90
64869;DHT22;51349;52.424;10.840;2023-02-14T15:30:02;8.40;99.90
64869;DHT22;51349;52.424;10.840;2023-02-14T15:35:05;8.20;99.90
64869;DHT22;51349;52.424;10.840;2023-02-14T15:40:06;8.10;99.90
64869;DHT22;51349;52.424;10.840;2023-02-14T15:45:21;8.20;99.90
64869;DHT22;51349;52.424;10.840;2023-02-14T15:50:32;7.90;99.90
64869;DHT22;51349;52.424;10.840;2023-02-14T15:55:34;7.70;99.90
64869;DHT22;51349;52.424;10.840;2023-02-14T16:00:35;7.50;99.90
64869;DHT22;51349;52.424;10.840;2023-02-14T16:05:36;7.30;99.90
64869;DHT22;51349;52.424;10.840;2023-02-14T16:10:37;7.10;99.90
64869;DHT22;51349;52.424;10.840;2023-02-14T16:15:43;6.80;99.90
64869;DHT22;51349;52.424;10.840;2023-02-14T16:20:54;6.60;99.90
64869;DHT22;51349;52.424;10.840;2023-02-14T16:25:55;6.40;99.90
64869;DHT22;51349;52.424;10.840;2023-02-14T16:31:00;6.30;99.90
64869;DHT22;51349;52.424;10.840;2023-02-14T16:36:25;5.90;99.90
64869;DHT22;51349;52.424;10.840;2023-02-14T16:41:28;5.50;99.90
64869;DHT22;51349;52.424;10.840;2023-02-14T16:46:30;5.40;99.90
64869;DHT22;51349;52.424;10.840;2023-02-14T16:51:33;5.10;99.90
64869;DHT22;51349;52.424;10.840;2023-02-14T17:01:46;4.80;99.90
64869;DHT22;51349;52.424;10.840;2023-02-14T17:06:51;4.60;99.90
64869;DHT22;51349;52.424;10.840;2023-02-14T17:11:56;4.50;99.90
64869;DHT22;51349;52.424;10.840;2023-02-14T17:17:00;4.30;99.90
64869;DHT22;51349;52.424;10.840;2023-02-14T17:22:01;4.20;99.90
64869;DHT22;51349;52.424;10.840;2023-02-14T17:27:03;4.20;99.90
64869;DHT22;51349;52.424;10.840;2023-02-14T17:32:06;4.00;99.90
64869;DHT22;51349;52.424;10.840;2023-02-14T17:37:09;3.90;99.90
64869;DHT22;51349;52.424;10.840;2023-02-14T17:42:10;3.70;99.90
64869;DHT22;51349;52.424;10.840;2023-02-14T17:47:10;3.50;99.90
64869;DHT22;51349;52.424;10.840;2023-02-14T17:52:11;3.40;99.90
64869;DHT22;51349;52.424;10.840;2023-02-14T17:57:12;3.30;99.90
64869;DHT22;51349;52.424;10.840;2023-02-14T18:02:13;3.30;99.90
64869;DHT22;51349;52.424;10.840;2023-02-14T18:07:14;3.10;99.90
64869;DHT22;51349;52.424;10.840;2023-02-14T18:12:14;3.00;99.90
64869;DHT22;51349;52.424;10.840;2023-02-14T18:17:15;2.90;99.90
64869;DHT22;51349;52.424;10.840;2023-02-14T18:22:16;2.70;99.90
64869;DHT22;51349;52.424;10.840;2023-02-14T18:27:16;2.50;99.90
64869;DHT22;51349;52.424;10.840;2023-02-14T18:32:17;2.40;99.90
64869;DHT22;51349;52.424;10.840;2023-02-14T18:37:17;2.50;99.90
64869;DHT22;51349;52.424;10.840;2023-02-14T18:42:19;2.40;99.90
64869;DHT22;51349;52.424;10.840;2023-02-14T18:47:19;2.30;99.90
64869;DHT22;51349;52.424;10.840;2023-02-14T18:52:20;2.10;99.90
64869;DHT22;51349;52.424;10.840;2023-02-14T18:57:21;2.00;99.90
64869;DHT22;51349;52.424;10.840;2023-02-14T19:02:21;2.20;99.90
64869;DHT22;51349;52.424;10.840;2023-02-14T19:07:22;2.20;99.90
64869;DHT22;51349;52.424;10.840;2023-02-14T19:12:23;1.90;99.90
64869;DHT22;51349;52.424;10.840;2023-02-14T19:17:27;1.80;99.90
64869;DHT22;51349;52.424;10.840;2023-02-14T19:22:27;1.70;99.90
64869;DHT22;51349;52.424;10.840;2023-02-14T19:27:28;1.70;99.90
64869;DHT22;51349;52.424;10.840;2023-02-14T19:32:29;1.40;99.90
64869;DHT22;51349;52.424;10.840;2023-02-14T19:37:30;1.30;99.90
64869;DHT22;51349;52.424;10.840;2023-02-14T19:42:31;1.30;99.90
64869;DHT22;51349;52.424;10.840;2023-02-14T19:47:31;1.30;99.90
64869;DHT22;51349;52.424;10.840;2023-02-14T19:52:32;1.10;99.90
64869;DHT22;51349;52.424;10.840;2023-02-14T19:57:33;1.10;99.90
64869;DHT22;51349;52.424;10.840;2023-02-14T20:02:33;1.20;99.90
64869;DHT22;51349;52.424;10.840;2023-02-14T20:07:34;1.00;99.90
64869;DHT22;51349;52.424;10.840;2023-02-14T20:12:35;0.90;99.90
64869;DHT22;51349;52.424;10.840;2023-02-14T20:17:36;0.90;99.90
64869;DHT22;51349;52.424;10.840;2023-02-14T20:22:36;0.70;99.90
64869;DHT22;51349;52.424;10.840;2023-02-14T20:27:37;0.80;99.90
64869;DHT22;51349;52.424;10.840;2023-02-14T20:32:39;0.70;99.90
64869;DHT22;51349;52.424;10.840;2023-02-14T20:37:40;0.80;99.90
64869;DHT22;51349;52.424;10.840;2023-02-14T20:42:40;0.80;99.90
64869;DHT22;51349;52.424;10.840;2023-02-14T20:47:41;0.70;99.90
64869;DHT22;51349;52.424;10.840;2023-02-14T20:52:41;0.60;99.90
64869;DHT22;51349;52.424;10.840;2023-02-14T20:57:42;0.60;99.90
64869;DHT22;51349;52.424;10.840;2023-02-14T21:02:43;0.50;99.90
64869;DHT22;51349;52.424;10.840;2023-02-14T21:07:43;0.60;99.90
64869;DHT22;51349;52.424;10.840;2023-02-14T21:12:44;0.70;99.90
64869;DHT22;51349;52.424;10.840;2023-02-14T21:17:44;0.70;99.90
64869;DHT22;51349;52.424;10.840;2023-02-14T21:22:45;0.70;99.90
64869;DHT22;51349;52.424;10.840;2023-02-14T21:27:46;0.70;99.90
64869;DHT22;51349;52.424;10.840;2023-02-14T21:32:46;0.70;99.90
64869;DHT22;51349;52.424;10.840;2023-02-14T21:37:47;0.70;99.90
64869;DHT22;51349;52.424;10.840;2023-02-14T21:42:48;0.70;99.90
64869;DHT22;51349;52.424;10.840;2023-02-14T21:47:48;0.70;99.90
64869;DHT22;51349;52.424;10.840;2023-02-14T21:53:09;0.70;99.90
64869;DHT22;51349;52.424;10.840;2023-02-14T21:58:10;0.60;99.90
64869;DHT22;51349;52.424;10.840;2023-02-14T22:03:10;0.50;99.90
64869;DHT22;51349;52.424;10.840;2023-02-14T22:08:11;0.50;99.90
64869;DHT22;51349;52.424;10.840;2023-02-14T22:13:11;0.50;99.90
64869;DHT22;51349;52.424;10.840;2023-02-14T22:18:12;0.60;99.90
64869;DHT22;51349;52.424;10.840;2023-02-14T22:23:13;0.50;99.90
64869;DHT22;51349;52.424;10.840;2023-02-14T22:28:13;0.60;99.90
64869;DHT22;51349;52.424;10.840;2023-02-14T22:33:14;0.50;99.90
64869;DHT22;51349;52.424;10.840;2023-02-14T22:38:14;0.60;99.90
64869;DHT22;51349;52.424;10.840;2023-02-14T22:43:15;0.60;99.90
64869;DHT22;51349;52.424;10.840;2023-02-14T22:48:16;0.60;99.90
64869;DHT22;51349;52.424;10.840;2023-02-14T22:53:17;0.50;99.90
64869;DHT22;51349;52.424;10.840;2023-02-14T22:58:17;0.50;99.90
64869;DHT22;51349;52.424;10.840;2023-02-14T23:03:18;0.50;99.90
64869;DHT22;51349;52.424;10.840;2023-02-14T23:08:19;0.40;99.90
64869;DHT22;51349;52.424;10.840;2023-02-14T23:13:19;0.40;99.90
64869;DHT22;51349;52.424;10.840;2023-02-14T23:18:38;0.30;99.90
64869;DHT22;51349;52.424;10.840;2023-02-14T23:23:57;0.20;99.90
64869;DHT22;51349;52.424;10.840;2023-02-14T23:28:58;0.20;99.90
64869;DHT22;51349;52.424;10.840;2023-02-14T23:33:58;0.20;99.90
64869;DHT22;51349;52.424;10.840;2023-02-14T23:38:59;0.10;99.90
64869;DHT22;51349;52.424;10.840;2023-02-14T23:44:00;0.00;99.90
64869;DHT22;51349;52.424;10.840;2023-02-14T23:49:00;0.00;99.90
64869;DHT22;51349;52.424;10.840;2023-02-14T23:54:01;0.00;99.90
64869;DHT22;51349;52.424;10.840;2023-02-14T23:59:03;-0.10;99.90
